createdAt,value
2022-12-27T00:00:07.157Z,100516.28
2022-12-27T00:00:38.676Z,100511.34
2022-12-27T00:01:10.077Z,100509.72
2022-12-27T00:01:41.554Z,100520.38
2022-12-27T00:02:13.027Z,100519.28
2022-12-27T00:02:44.565Z,100517.63
2022-12-27T00:03:15.925Z,100516.00
2022-12-27T00:03:47.319Z,100531.28
2022-12-27T00:04:18.751Z,100523.09
2022-12-27T00:04:50.155Z,100517.63
2022-12-27T00:05:21.548Z,100513.00
2022-12-27T00:05:52.976Z,100523.63
2022-12-27T00:06:24.416Z,100521.19
2022-12-27T00:06:55.839Z,100524.44
2022-12-27T00:07:27.253Z,100519.81
2022-12-27T00:07:58.728Z,100518.72
2022-12-27T00:08:30.142Z,100513.53
2022-12-27T00:09:01.598Z,100531.25
2022-12-27T00:09:33.021Z,100525.00
2022-12-27T00:10:04.461Z,100511.06
2022-12-27T00:10:35.836Z,100520.09
2022-12-27T00:11:07.269Z,100520.38
2022-12-27T00:11:38.766Z,100525.00
2022-12-27T00:12:10.196Z,100515.16
2022-12-27T00:12:41.604Z,100511.09
2022-12-27T00:13:12.979Z,100506.72
2022-12-27T00:13:44.322Z,100505.34
2022-12-27T00:14:15.659Z,100509.44
2022-12-27T00:14:47.090Z,100510.00
2022-12-27T00:15:18.431Z,100513.56
2022-12-27T00:15:49.800Z,100510.56
2022-12-27T00:16:21.327Z,100516.81
2022-12-27T00:16:52.860Z,100512.19
2022-12-27T00:17:24.306Z,100514.91
2022-12-27T00:17:55.694Z,100519.28
2022-12-27T00:18:27.080Z,100510.28
2022-12-27T00:18:58.520Z,100513.81
2022-12-27T00:19:29.903Z,100509.44
2022-12-27T00:20:05.335Z,100526.91
2022-12-27T00:20:39.799Z,100503.44
2022-12-27T00:21:11.230Z,100508.34
2022-12-27T00:21:42.658Z,100508.63
2022-12-27T00:22:14.125Z,100509.72
2022-12-27T00:22:45.528Z,100506.44
2022-12-27T00:23:16.925Z,100510.53
2022-12-27T00:23:48.323Z,100512.47
2022-12-27T00:24:19.746Z,100504.28
2022-12-27T00:24:51.155Z,100516.00
2022-12-27T00:25:22.515Z,100510.00
2022-12-27T00:25:54.033Z,100510.28
2022-12-27T00:26:25.432Z,100504.00
2022-12-27T00:26:56.847Z,100504.25
2022-12-27T00:27:29.021Z,100497.19
2022-12-27T00:28:00.398Z,100500.44
2022-12-27T00:28:31.767Z,100505.66
2022-12-27T00:29:03.139Z,100511.09
2022-12-27T00:29:34.506Z,100503.72
2022-12-27T00:30:05.898Z,100509.44
2022-12-27T00:30:37.490Z,100521.72
2022-12-27T00:31:08.956Z,100505.09
2022-12-27T00:31:40.540Z,100509.44
2022-12-27T00:32:11.939Z,100511.34
2022-12-27T00:32:43.477Z,100510.28
2022-12-27T00:33:14.892Z,100511.34
2022-12-27T00:33:46.328Z,100501.81
2022-12-27T00:34:17.679Z,100499.34
2022-12-27T00:34:49.125Z,100507.00
2022-12-27T00:35:20.615Z,100511.63
2022-12-27T00:35:52.078Z,100508.91
2022-12-27T00:36:23.545Z,100502.38
2022-12-27T00:36:54.938Z,100510.28
2022-12-27T00:37:26.342Z,100503.44
2022-12-27T00:37:57.770Z,100505.63
2022-12-27T00:38:29.132Z,100514.09
2022-12-27T00:39:00.625Z,100509.19
2022-12-27T00:39:32.069Z,100507.81
2022-12-27T00:40:03.441Z,100510.53
2022-12-27T00:40:34.868Z,100511.09
2022-12-27T00:41:06.244Z,100505.91
2022-12-27T00:41:37.648Z,100505.38
2022-12-27T00:42:09.068Z,100511.09
2022-12-27T00:42:40.449Z,100512.19
2022-12-27T00:43:11.955Z,100506.72
2022-12-27T00:43:43.257Z,100508.91
2022-12-27T00:44:14.703Z,100506.44
2022-12-27T00:44:46.085Z,100508.34
2022-12-27T00:45:17.488Z,100506.44
2022-12-27T00:45:48.928Z,100500.44
2022-12-27T00:46:20.360Z,100508.34
2022-12-27T00:46:51.755Z,100502.91
2022-12-27T00:47:23.158Z,100506.47
2022-12-27T00:47:54.526Z,100500.75
2022-12-27T00:48:26.018Z,100504.28
2022-12-27T00:48:57.403Z,100511.09
2022-12-27T00:49:28.875Z,100507.00
2022-12-27T00:50:00.320Z,100507.28
2022-12-27T00:50:31.722Z,100506.44
2022-12-27T00:51:03.088Z,100504.28
2022-12-27T00:51:34.479Z,100501.53
2022-12-27T00:52:05.866Z,100502.91
2022-12-27T00:52:37.256Z,100494.47
2022-12-27T00:53:08.644Z,100492.25
2022-12-27T00:53:40.027Z,100498.81
2022-12-27T00:54:11.448Z,100500.72
2022-12-27T00:54:42.819Z,100505.34
2022-12-27T00:55:14.152Z,100506.44
2022-12-27T00:55:45.611Z,100496.63
2022-12-27T00:56:16.995Z,100505.06
2022-12-27T00:56:48.429Z,100501.81
2022-12-27T00:57:19.822Z,100503.72
2022-12-27T00:57:51.199Z,100505.91
2022-12-27T00:58:22.632Z,100517.63
2022-12-27T00:58:54.202Z,100508.91
2022-12-27T00:59:25.584Z,100501.53
2022-12-27T00:59:57.126Z,100505.38
2022-12-27T01:00:28.464Z,100498.53
2022-12-27T01:00:59.916Z,100504.81
2022-12-27T01:01:31.419Z,100497.47
2022-12-27T01:02:03.035Z,100502.63
2022-12-27T01:02:34.490Z,100496.38
2022-12-27T01:03:05.939Z,100496.91
2022-12-27T01:03:37.289Z,100492.00
2022-12-27T01:04:10.680Z,100496.91
2022-12-27T01:04:42.124Z,100504.53
2022-12-27T01:05:13.508Z,100503.72
2022-12-27T01:05:44.880Z,100497.44
2022-12-27T01:06:16.316Z,100495.28
2022-12-27T01:06:47.696Z,100515.72
2022-12-27T01:07:19.106Z,100497.47
2022-12-27T01:07:50.521Z,100499.09
2022-12-27T01:08:21.872Z,100494.47
2022-12-27T01:08:53.223Z,100496.38
2022-12-27T01:09:24.652Z,100499.63
2022-12-27T01:09:56.099Z,100503.44
2022-12-27T01:10:27.490Z,100501.00
2022-12-27T01:10:58.867Z,100498.00
2022-12-27T01:11:30.280Z,100508.63
2022-12-27T01:12:01.694Z,100506.44
2022-12-27T01:12:33.078Z,100505.63
2022-12-27T01:13:04.457Z,100506.44
2022-12-27T01:13:35.893Z,100505.09
2022-12-27T01:14:07.260Z,100507.81
2022-12-27T01:14:38.715Z,100507.00
2022-12-27T01:15:10.143Z,100513.00
2022-12-27T01:15:41.577Z,100509.47
2022-12-27T01:16:12.975Z,100504.28
2022-12-27T01:16:44.404Z,100524.19
2022-12-27T01:17:15.918Z,100509.19
2022-12-27T01:17:47.368Z,100510.00
2022-12-27T01:18:18.797Z,100513.81
2022-12-27T01:18:50.176Z,100516.81
2022-12-27T01:19:21.818Z,100501.28
2022-12-27T01:19:53.310Z,100513.00
2022-12-27T01:20:24.711Z,100517.91
2022-12-27T01:20:56.147Z,100519.53
2022-12-27T01:21:27.513Z,100517.63
2022-12-27T01:21:58.920Z,100511.09
2022-12-27T01:22:30.314Z,100525.00
2022-12-27T01:23:01.696Z,100529.09
2022-12-27T01:23:33.101Z,100522.00
2022-12-27T01:24:04.531Z,100529.38
2022-12-27T01:24:35.937Z,100522.53
2022-12-27T01:25:07.451Z,100520.38
2022-12-27T01:25:38.857Z,100523.38
2022-12-27T01:26:10.226Z,100527.19
2022-12-27T01:26:41.622Z,100532.91
2022-12-27T01:27:13.026Z,100531.81
2022-12-27T01:27:44.441Z,100531.28
2022-12-27T01:28:15.882Z,100538.09
2022-12-27T01:28:47.293Z,100526.91
2022-12-27T01:29:18.672Z,100520.91
2022-12-27T01:29:50.057Z,100525.28
2022-12-27T01:30:21.485Z,100529.38
2022-12-27T01:30:52.895Z,100545.19
2022-12-27T01:31:24.324Z,100534.28
2022-12-27T01:31:55.929Z,100534.00
2022-12-27T01:32:27.269Z,100529.38
2022-12-27T01:32:58.807Z,100536.47
2022-12-27T01:33:30.172Z,100553.09
2022-12-27T01:34:01.534Z,100545.19
2022-12-27T01:34:32.929Z,100543.81
2022-12-27T01:35:04.322Z,100540.00
2022-12-27T01:35:35.725Z,100546.28
2022-12-27T01:36:07.080Z,100540.56
2022-12-27T01:36:38.526Z,100535.91
2022-12-27T01:37:09.918Z,100543.81
2022-12-27T01:37:41.313Z,100540.56
2022-12-27T01:38:12.720Z,100538.38
2022-12-27T01:38:44.145Z,100541.63
2022-12-27T01:39:15.515Z,100546.28
2022-12-27T01:39:46.898Z,100546.28
2022-12-27T01:40:18.361Z,100540.00
2022-12-27T01:40:49.802Z,100541.91
2022-12-27T01:41:21.207Z,100545.19
2022-12-27T01:41:52.538Z,100545.47
2022-12-27T01:42:23.900Z,100539.47
2022-12-27T01:42:55.381Z,100533.75
2022-12-27T01:43:26.846Z,100538.94
2022-12-27T01:43:58.222Z,100540.28
2022-12-27T01:44:29.585Z,100545.19
2022-12-27T01:45:01.325Z,100554.72
2022-12-27T01:45:34.641Z,100540.56
2022-12-27T01:46:06.097Z,100538.63
2022-12-27T01:46:37.490Z,100541.38
2022-12-27T01:47:08.913Z,100546.81
2022-12-27T01:47:40.302Z,100533.19
2022-12-27T01:48:11.696Z,100542.19
2022-12-27T01:48:43.208Z,100537.53
2022-12-27T01:49:14.647Z,100541.63
2022-12-27T01:49:46.031Z,100535.66
2022-12-27T01:50:17.384Z,100552.56
2022-12-27T01:50:48.833Z,100539.19
2022-12-27T01:51:20.185Z,100533.47
2022-12-27T01:51:51.541Z,100539.75
2022-12-27T01:52:22.920Z,100540.84
2022-12-27T01:52:54.280Z,100541.38
2022-12-27T01:53:25.643Z,100543.28
2022-12-27T01:53:57.095Z,100542.72
2022-12-27T01:54:28.414Z,100546.00
2022-12-27T01:54:59.769Z,100541.66
2022-12-27T01:55:31.230Z,100548.19
2022-12-27T01:56:02.653Z,100531.28
2022-12-27T01:56:34.090Z,100537.28
2022-12-27T01:57:05.475Z,100537.53
2022-12-27T01:57:36.837Z,100537.56
2022-12-27T01:58:08.228Z,100540.81
2022-12-27T01:58:39.633Z,100548.19
2022-12-27T01:59:11.061Z,100562.91
2022-12-27T01:59:42.485Z,100547.66
2022-12-27T02:00:13.868Z,100551.19
2022-12-27T02:00:45.336Z,100548.47
2022-12-27T02:01:16.907Z,100565.09
2022-12-27T02:01:48.536Z,100556.91
2022-12-27T02:02:20.057Z,100552.56
2022-12-27T02:02:51.628Z,100564.84
2022-12-27T02:03:23.058Z,100552.00
2022-12-27T02:03:54.459Z,100559.38
2022-12-27T02:04:25.825Z,100556.09
2022-12-27T02:04:57.181Z,100562.38
2022-12-27T02:05:28.624Z,100548.72
2022-12-27T02:06:00.011Z,100557.19
2022-12-27T02:06:31.378Z,100558.00
2022-12-27T02:07:02.843Z,100554.72
2022-12-27T02:07:34.246Z,100559.63
2022-12-27T02:08:05.633Z,100556.91
2022-12-27T02:08:37.080Z,100558.56
2022-12-27T02:09:08.447Z,100564.00
2022-12-27T02:09:39.910Z,100556.38
2022-12-27T02:10:11.260Z,100559.63
2022-12-27T02:10:42.717Z,100560.72
2022-12-27T02:11:14.135Z,100568.38
2022-12-27T02:11:45.606Z,100557.47
2022-12-27T02:12:16.986Z,100556.38
2022-12-27T02:12:49.107Z,100564.00
2022-12-27T02:13:20.487Z,100565.66
2022-12-27T02:13:51.866Z,100556.38
2022-12-27T02:14:27.671Z,100564.00
2022-12-27T02:14:59.649Z,100570.00
2022-12-27T02:15:31.023Z,100568.38
2022-12-27T02:16:02.428Z,100563.44
2022-12-27T02:16:33.860Z,100567.56
2022-12-27T02:17:05.378Z,100567.56
2022-12-27T02:17:36.851Z,100567.56
2022-12-27T02:18:08.226Z,100562.38
2022-12-27T02:18:39.614Z,100561.28
2022-12-27T02:19:10.992Z,100557.47
2022-12-27T02:19:42.428Z,100573.28
2022-12-27T02:20:13.969Z,100565.38
2022-12-27T02:20:45.350Z,100562.91
2022-12-27T02:21:16.744Z,100567.56
2022-12-27T02:21:49.167Z,100561.81
2022-12-27T02:22:20.547Z,100555.28
2022-12-27T02:22:51.923Z,100562.66
2022-12-27T02:23:23.278Z,100559.09
2022-12-27T02:23:54.632Z,100566.19
2022-12-27T02:24:26.090Z,100559.63
2022-12-27T02:24:57.605Z,100569.72
2022-12-27T02:25:29.147Z,100561.28
2022-12-27T02:26:00.544Z,100568.38
2022-12-27T02:26:31.925Z,100562.38
2022-12-27T02:27:03.356Z,100567.28
2022-12-27T02:27:34.726Z,100561.81
2022-12-27T02:28:06.169Z,100564.53
2022-12-27T02:28:37.552Z,100568.63
2022-12-27T02:29:08.911Z,100564.53
2022-12-27T02:29:40.250Z,100563.72
2022-12-27T02:30:11.603Z,100562.66
2022-12-27T02:30:43.035Z,100570.81
2022-12-27T02:31:14.543Z,100565.66
2022-12-27T02:31:45.984Z,100562.38
2022-12-27T02:32:17.411Z,100564.00
2022-12-27T02:32:48.783Z,100555.56
2022-12-27T02:33:20.179Z,100568.66
2022-12-27T02:33:51.567Z,100566.19
2022-12-27T02:34:22.948Z,100554.72
2022-12-27T02:34:54.359Z,100561.81
2022-12-27T02:35:25.704Z,100558.56
2022-12-27T02:35:57.142Z,100570.81
2022-12-27T02:36:28.490Z,100543.25
2022-12-27T02:36:59.901Z,100565.91
2022-12-27T02:37:31.258Z,100560.72
2022-12-27T02:38:02.643Z,100561.00
2022-12-27T02:38:34.049Z,100557.19
2022-12-27T02:39:05.478Z,100558.81
2022-12-27T02:39:36.887Z,100556.38
2022-12-27T02:40:08.260Z,100563.72
2022-12-27T02:40:39.621Z,100563.75
2022-12-27T02:41:11.064Z,100560.19
2022-12-27T02:41:42.459Z,100559.91
2022-12-27T02:42:13.845Z,100569.19
2022-12-27T02:42:45.248Z,100569.47
2022-12-27T02:43:16.647Z,100570.00
2022-12-27T02:43:47.973Z,100560.72
2022-12-27T02:44:19.335Z,100568.09
2022-12-27T02:44:50.692Z,100557.75
2022-12-27T02:45:22.103Z,100564.28
2022-12-27T02:45:53.505Z,100561.56
2022-12-27T02:46:25.109Z,100564.28
2022-12-27T02:46:56.500Z,100565.09
2022-12-27T02:47:27.826Z,100573.81
2022-12-27T02:47:59.204Z,100566.47
2022-12-27T02:48:30.568Z,100563.47
2022-12-27T02:49:01.961Z,100568.09
2022-12-27T02:49:33.368Z,100569.19
2022-12-27T02:50:04.768Z,100567.84
2022-12-27T02:50:36.206Z,100566.19
2022-12-27T02:51:07.610Z,100567.56
2022-12-27T02:51:39.076Z,100568.91
2022-12-27T02:52:10.541Z,100565.38
2022-12-27T02:52:41.916Z,100567.81
2022-12-27T02:53:13.300Z,100565.91
2022-12-27T02:53:44.668Z,100573.00
2022-12-27T02:54:16.053Z,100568.38
2022-12-27T02:54:47.427Z,100562.09
2022-12-27T02:55:18.882Z,100560.72
2022-12-27T02:55:50.299Z,100555.28
2022-12-27T02:56:21.679Z,100561.81
2022-12-27T02:56:53.106Z,100561.81
2022-12-27T02:57:24.459Z,100558.28
2022-12-27T02:57:55.845Z,100550.91
2022-12-27T02:58:27.287Z,100558.28
2022-12-27T02:58:58.860Z,100557.19
2022-12-27T02:59:30.232Z,100557.19
2022-12-27T03:00:03.900Z,100561.81
2022-12-27T03:00:35.258Z,100561.81
2022-12-27T03:01:06.637Z,100550.63
2022-12-27T03:01:38.276Z,100560.72
2022-12-27T03:02:09.918Z,100567.81
2022-12-27T03:02:41.497Z,100561.81
2022-12-27T03:03:13.001Z,100580.38
2022-12-27T03:03:44.947Z,100561.28
2022-12-27T03:04:16.523Z,100565.91
2022-12-27T03:04:47.976Z,100574.91
2022-12-27T03:05:19.373Z,100561.56
2022-12-27T03:05:50.749Z,100568.91
2022-12-27T03:06:22.159Z,100556.66
2022-12-27T03:06:53.562Z,100562.91
2022-12-27T03:07:24.988Z,100569.19
2022-12-27T03:07:56.417Z,100560.47
2022-12-27T03:08:27.783Z,100565.09
2022-12-27T03:08:59.307Z,100571.91
2022-12-27T03:09:30.633Z,100567.56
2022-12-27T03:10:02.037Z,100566.72
2022-12-27T03:10:33.419Z,100571.09
2022-12-27T03:11:04.798Z,100567.81
2022-12-27T03:11:36.174Z,100561.28
2022-12-27T03:12:07.560Z,100572.19
2022-12-27T03:12:39.023Z,100563.75
2022-12-27T03:13:10.431Z,100567.28
2022-12-27T03:13:41.749Z,100567.00
2022-12-27T03:14:13.146Z,100572.19
2022-12-27T03:14:44.581Z,100567.84
2022-12-27T03:15:15.936Z,100560.19
2022-12-27T03:15:47.325Z,100557.19
2022-12-27T03:16:18.798Z,100557.47
2022-12-27T03:16:50.241Z,100562.91
2022-12-27T03:17:21.678Z,100558.00
2022-12-27T03:17:53.122Z,100560.19
2022-12-27T03:18:24.505Z,100562.91
2022-12-27T03:18:55.938Z,100559.38
2022-12-27T03:19:27.314Z,100565.66
2022-12-27T03:19:58.712Z,100570.00
2022-12-27T03:20:30.113Z,100564.56
2022-12-27T03:21:01.496Z,100571.09
2022-12-27T03:21:32.863Z,100561.56
2022-12-27T03:22:04.377Z,100574.91
2022-12-27T03:22:35.733Z,100568.66
2022-12-27T03:23:07.256Z,100567.28
2022-12-27T03:23:38.607Z,100570.28
2022-12-27T03:24:09.998Z,100579.28
2022-12-27T03:24:41.456Z,100568.09
2022-12-27T03:25:12.816Z,100572.75
2022-12-27T03:25:44.245Z,100566.47
2022-12-27T03:26:15.657Z,100571.09
2022-12-27T03:26:47.006Z,100570.81
2022-12-27T03:27:18.594Z,100570.56
2022-12-27T03:27:49.963Z,100567.00
2022-12-27T03:28:21.448Z,100573.81
2022-12-27T03:28:52.883Z,100568.63
2022-12-27T03:29:24.255Z,100568.38
2022-12-27T03:29:55.627Z,100571.38
2022-12-27T03:30:26.968Z,100571.38
2022-12-27T03:30:58.373Z,100577.91
2022-12-27T03:31:29.895Z,100568.09
2022-12-27T03:32:01.317Z,100579.84
2022-12-27T03:32:32.719Z,100574.38
2022-12-27T03:33:04.102Z,100576.84
2022-12-27T03:33:35.562Z,100583.09
2022-12-27T03:34:06.948Z,100584.75
2022-12-27T03:34:38.339Z,100583.91
2022-12-27T03:35:09.756Z,100577.66
2022-12-27T03:35:41.151Z,100580.09
2022-12-27T03:36:12.542Z,100579.81
2022-12-27T03:36:43.913Z,100580.66
2022-12-27T03:37:15.367Z,100580.66
2022-12-27T03:37:46.772Z,100586.09
2022-12-27T03:38:18.149Z,100582.00
2022-12-27T03:38:49.610Z,100579.28
2022-12-27T03:39:21.010Z,100582.00
2022-12-27T03:39:52.453Z,100578.72
2022-12-27T03:40:23.868Z,100576.56
2022-12-27T03:40:55.279Z,100582.56
2022-12-27T03:41:26.676Z,100582.28
2022-12-27T03:41:58.052Z,100586.66
2022-12-27T03:42:29.431Z,100578.75
2022-12-27T03:43:00.792Z,100585.00
2022-12-27T03:43:32.191Z,100582.00
2022-12-27T03:44:03.603Z,100586.38
2022-12-27T03:44:35.045Z,100584.75
2022-12-27T03:45:06.387Z,100584.19
2022-12-27T03:45:37.796Z,100585.81
2022-12-27T03:46:09.194Z,100585.00
2022-12-27T03:46:40.572Z,100588.56
2022-12-27T03:47:11.959Z,100586.09
2022-12-27T03:47:43.367Z,100590.47
2022-12-27T03:48:14.732Z,100592.91
2022-12-27T03:48:46.113Z,100576.28
2022-12-27T03:49:17.528Z,100582.56
2022-12-27T03:49:48.913Z,100589.09
2022-12-27T03:50:20.311Z,100585.00
2022-12-27T03:50:51.707Z,100588.56
2022-12-27T03:51:23.170Z,100583.09
2022-12-27T03:51:54.663Z,100588.28
2022-12-27T03:52:26.079Z,100589.66
2022-12-27T03:52:57.477Z,100589.38
2022-12-27T03:53:28.919Z,100588.81
2022-12-27T03:54:00.313Z,100588.00
2022-12-27T03:54:31.807Z,100592.66
2022-12-27T03:55:03.239Z,100588.56
2022-12-27T03:55:34.660Z,100587.47
2022-12-27T03:56:06.054Z,100591.81
2022-12-27T03:56:37.436Z,100594.28
2022-12-27T03:57:08.835Z,100583.63
2022-12-27T03:57:40.189Z,100589.38
2022-12-27T03:58:11.542Z,100594.56
2022-12-27T03:58:43.836Z,100589.66
2022-12-27T03:59:15.281Z,100589.66
2022-12-27T03:59:46.755Z,100585.81
2022-12-27T04:00:18.151Z,100587.19
2022-12-27T04:00:49.592Z,100591.84
2022-12-27T04:01:21.042Z,100592.91
2022-12-27T04:01:52.640Z,100599.47
2022-12-27T04:02:24.224Z,100598.66
2022-12-27T04:02:55.833Z,100596.47
2022-12-27T04:03:27.378Z,100598.09
2022-12-27T04:03:58.762Z,100595.91
2022-12-27T04:04:30.146Z,100597.56
2022-12-27T04:05:01.737Z,100600.56
2022-12-27T04:05:33.205Z,100605.19
2022-12-27T04:06:04.594Z,100598.38
2022-12-27T04:06:35.948Z,100595.66
2022-12-27T04:07:07.297Z,100594.84
2022-12-27T04:07:38.740Z,100595.91
2022-12-27T04:08:10.152Z,100591.00
2022-12-27T04:08:41.522Z,100597.81
2022-12-27T04:09:12.879Z,100596.75
2022-12-27T04:09:44.242Z,100598.91
2022-12-27T04:10:15.681Z,100594.84
2022-12-27T04:10:47.122Z,100586.91
2022-12-27T04:11:18.514Z,100585.56
2022-12-27T04:11:49.898Z,100589.66
2022-12-27T04:12:21.272Z,100596.19
2022-12-27T04:12:52.634Z,100591.56
2022-12-27T04:13:24.010Z,100599.47
2022-12-27T04:13:55.450Z,100599.19
2022-12-27T04:14:26.864Z,100601.38
2022-12-27T04:14:58.244Z,100611.47
2022-12-27T04:15:29.661Z,100601.09
2022-12-27T04:16:01.174Z,100595.66
2022-12-27T04:16:32.592Z,100598.91
2022-12-27T04:17:03.959Z,100598.66
2022-12-27T04:17:35.380Z,100594.00
2022-12-27T04:18:06.803Z,100591.84
2022-12-27T04:18:38.233Z,100600.28
2022-12-27T04:19:09.624Z,100600.56
2022-12-27T04:19:40.993Z,100601.66
2022-12-27T04:20:12.421Z,100611.47
2022-12-27T04:20:43.843Z,100609.28
2022-12-27T04:21:15.354Z,100613.66
2022-12-27T04:21:46.706Z,100615.28
2022-12-27T04:22:18.158Z,100612.56
2022-12-27T04:22:49.513Z,100611.19
2022-12-27T04:23:20.916Z,100615.56
2022-12-27T04:23:52.276Z,100618.00
2022-12-27T04:24:23.677Z,100612.00
2022-12-27T04:24:55.083Z,100618.56
2022-12-27T04:25:26.485Z,100616.38
2022-12-27T04:25:57.887Z,100616.38
2022-12-27T04:26:29.309Z,100620.47
2022-12-27T04:27:00.767Z,100606.84
2022-12-27T04:27:32.188Z,100617.47
2022-12-27T04:28:03.555Z,100616.09
2022-12-27T04:28:34.948Z,100623.19
2022-12-27T04:29:06.356Z,100622.91
2022-12-27T04:29:37.808Z,100614.75
2022-12-27T04:30:09.225Z,100618.56
2022-12-27T04:30:40.602Z,100607.38
2022-12-27T04:31:12.085Z,100612.84
2022-12-27T04:31:43.502Z,100616.91
2022-12-27T04:32:14.860Z,100619.38
2022-12-27T04:32:46.299Z,100605.47
2022-12-27T04:33:17.751Z,100613.38
2022-12-27T04:33:49.183Z,100613.09
2022-12-27T04:34:20.605Z,100615.81
2022-12-27T04:34:52.157Z,100612.28
2022-12-27T04:35:23.504Z,100609.00
2022-12-27T04:35:54.909Z,100609.28
2022-12-27T04:36:26.287Z,100614.75
2022-12-27T04:36:57.678Z,100618.28
2022-12-27T04:37:29.082Z,100606.00
2022-12-27T04:38:00.474Z,100606.00
2022-12-27T04:38:32.014Z,100609.00
2022-12-27T04:39:03.513Z,100608.19
2022-12-27T04:39:34.933Z,100609.84
2022-12-27T04:40:06.365Z,100610.66
2022-12-27T04:40:37.811Z,100617.75
2022-12-27T04:41:09.218Z,100615.28
2022-12-27T04:41:40.673Z,100609.81
2022-12-27T04:42:12.028Z,100612.84
2022-12-27T04:42:43.412Z,100613.09
2022-12-27T04:43:14.785Z,100616.38
2022-12-27T04:43:46.258Z,100616.38
2022-12-27T04:44:17.713Z,100609.00
2022-12-27T04:44:49.133Z,100611.75
2022-12-27T04:45:20.506Z,100616.91
2022-12-27T04:45:51.949Z,100615.28
2022-12-27T04:46:23.480Z,100617.19
2022-12-27T04:46:54.905Z,100612.28
2022-12-27T04:47:26.310Z,100615.56
2022-12-27T04:47:57.706Z,100612.56
2022-12-27T04:48:29.147Z,100624.56
2022-12-27T04:49:00.548Z,100613.38
2022-12-27T04:49:31.984Z,100616.09
2022-12-27T04:50:03.382Z,100616.91
2022-12-27T04:50:34.918Z,100624.56
2022-12-27T04:51:06.237Z,100621.84
2022-12-27T04:51:37.610Z,100619.38
2022-12-27T04:52:09.017Z,100618.81
2022-12-27T04:52:40.411Z,100616.38
2022-12-27T04:53:11.866Z,100616.38
2022-12-27T04:53:43.207Z,100617.19
2022-12-27T04:54:14.754Z,100618.56
2022-12-27T04:54:46.197Z,100621.84
2022-12-27T04:55:17.611Z,100621.00
2022-12-27T04:55:49.003Z,100625.38
2022-12-27T04:56:20.415Z,100624.84
2022-12-27T04:56:51.807Z,100627.84
2022-12-27T04:57:23.195Z,100622.66
2022-12-27T04:57:54.564Z,100622.91
2022-12-27T04:58:25.966Z,100626.47
2022-12-27T04:58:57.362Z,100623.47
2022-12-27T04:59:28.844Z,100629.47
2022-12-27T05:00:00.256Z,100626.47
2022-12-27T05:00:34.482Z,100621.56
2022-12-27T05:01:10.620Z,100629.75
2022-12-27T05:01:45.532Z,100627.28
2022-12-27T05:02:17.059Z,100628.66
2022-12-27T05:02:48.779Z,100635.47
2022-12-27T05:03:20.358Z,100631.09
2022-12-27T05:03:51.852Z,100632.75
2022-12-27T05:04:23.295Z,100624.56
2022-12-27T05:04:54.715Z,100625.66
2022-12-27T05:05:26.147Z,100627.28
2022-12-27T05:05:57.542Z,100629.75
2022-12-27T05:06:28.986Z,100637.09
2022-12-27T05:07:00.460Z,100621.28
2022-12-27T05:07:31.884Z,100634.66
2022-12-27T05:08:03.278Z,100642.03
2022-12-27T05:08:34.654Z,100625.66
2022-12-27T05:09:06.116Z,100626.19
2022-12-27T05:09:37.497Z,100628.66
2022-12-27T05:10:09.009Z,100632.19
2022-12-27T05:10:40.343Z,100631.09
2022-12-27T05:11:11.760Z,100627.56
2022-12-27T05:11:43.175Z,100633.00
2022-12-27T05:12:14.587Z,100630.28
2022-12-27T05:12:45.985Z,100642.03
2022-12-27T05:13:17.385Z,100632.19
2022-12-27T05:13:48.801Z,100640.94
2022-12-27T05:14:20.259Z,100633.84
2022-12-27T05:14:51.689Z,100624.84
2022-12-27T05:15:23.168Z,100633.84
2022-12-27T05:15:54.650Z,100641.19
2022-12-27T05:16:26.201Z,100630.84
2022-12-27T05:16:57.743Z,100631.91
2022-12-27T05:17:29.092Z,100643.66
2022-12-27T05:18:00.546Z,100640.09
2022-12-27T05:18:31.923Z,100631.09
2022-12-27T05:19:03.287Z,100633.56
2022-12-27T05:19:34.672Z,100642.03
2022-12-27T05:20:06.038Z,100633.84
2022-12-27T05:20:37.461Z,100637.91
2022-12-27T05:21:08.863Z,100641.75
2022-12-27T05:21:40.227Z,100634.94
2022-12-27T05:22:11.606Z,100644.19
2022-12-27T05:22:43.102Z,100634.66
2022-12-27T05:23:14.485Z,100642.03
2022-12-27T05:23:45.953Z,100637.38
2022-12-27T05:24:17.336Z,100644.75
2022-12-27T05:24:48.751Z,100647.47
2022-12-27T05:25:20.074Z,100652.66
2022-12-27T05:25:51.559Z,100647.75
2022-12-27T05:26:23.295Z,100638.75
2022-12-27T05:26:54.644Z,100642.03
2022-12-27T05:27:26.005Z,100634.94
2022-12-27T05:27:57.388Z,100641.19
2022-12-27T05:28:28.812Z,100639.56
2022-12-27T05:29:00.252Z,100648.84
2022-12-27T05:29:31.641Z,100655.94
2022-12-27T05:30:05.868Z,100648.03
2022-12-27T05:30:37.318Z,100643.66
2022-12-27T05:31:08.790Z,100649.66
2022-12-27T05:31:40.358Z,100654.56
2022-12-27T05:32:13.598Z,100650.75
2022-12-27T05:32:45.444Z,100645.84
2022-12-27T05:33:16.814Z,100651.03
2022-12-27T05:33:48.231Z,100649.09
2022-12-27T05:34:19.709Z,100647.47
2022-12-27T05:34:51.111Z,100651.84
2022-12-27T05:35:22.522Z,100649.09
2022-12-27T05:35:53.993Z,100654.56
2022-12-27T05:36:25.401Z,100667.94
2022-12-27T05:36:56.813Z,100663.56
2022-12-27T05:37:28.143Z,100657.84
2022-12-27T05:37:59.509Z,100674.22
2022-12-27T05:38:30.880Z,100666.56
2022-12-27T05:39:02.229Z,100669.03
2022-12-27T05:39:33.686Z,100662.19
2022-12-27T05:40:05.087Z,100663.28
2022-12-27T05:40:36.494Z,100655.66
2022-12-27T05:41:07.930Z,100669.56
2022-12-27T05:41:39.414Z,100674.22
2022-12-27T05:42:10.777Z,100657.84
2022-12-27T05:42:42.177Z,100665.47
2022-12-27T05:43:13.604Z,100674.22
2022-12-27T05:43:44.990Z,100669.56
2022-12-27T05:44:16.402Z,100666.84
2022-12-27T05:44:47.807Z,100665.19
2022-12-27T05:45:19.180Z,100670.38
2022-12-27T05:45:50.581Z,100670.38
2022-12-27T05:46:22.052Z,100667.66
2022-12-27T05:46:53.589Z,100669.03
2022-12-27T05:47:25.069Z,100667.13
2022-12-27T05:47:56.436Z,100672.56
2022-12-27T05:48:27.780Z,100668.75
2022-12-27T05:48:59.198Z,100673.38
2022-12-27T05:49:30.613Z,100668.75
2022-12-27T05:50:02.111Z,100670.94
2022-12-27T05:50:33.515Z,100665.19
2022-12-27T05:51:04.886Z,100668.75
2022-12-27T05:51:36.295Z,100668.47
2022-12-27T05:52:07.733Z,100663.84
2022-12-27T05:52:41.117Z,100666.28
2022-12-27T05:53:12.824Z,100666.56
2022-12-27T05:53:44.180Z,100668.75
2022-12-27T05:54:15.605Z,100672.03
2022-12-27T05:54:47.031Z,100661.94
2022-12-27T05:55:18.440Z,100666.56
2022-12-27T05:55:49.878Z,100655.09
2022-12-27T05:56:21.299Z,100662.19
2022-12-27T05:56:52.785Z,100668.75
2022-12-27T05:57:24.184Z,100667.66
2022-12-27T05:57:55.600Z,100664.13
2022-12-27T05:58:26.963Z,100668.47
2022-12-27T05:58:58.344Z,100676.66